Time;durP1;ratioP1;P1;durP2;ratioP2;P2;SDS_P1;SDS_P2;PMS_P1;PMS_P2;Temp;Humidity;BMP_temperature;BMP_pressure;BME280_temperature;BME280_humidity;BME280_pressure;Samples;Min_cycle;Max_cycle;Signal;HPM_P1;HPM_P2
2022/07/21 00:01:48;;;;;;;18.92;9.85;;;;;;;;;;5095603;28;20043;-69
2022/07/21 00:04:15;;;;;;;13.55;8.23;;;;;;;;;;5073380;28;20052;-68
2022/07/21 00:06:42;;;;;;;16.65;11.50;;;;;;;;;;5093131;28;20434;-68
2022/07/21 00:09:09;;;;;;;13.45;9.00;;;;;;;;;;5090487;28;20140;-69
2022/07/21 00:11:35;;;;;;;12.85;9.98;;;;;;;;;;5093111;28;20042;-68
2022/07/21 00:14:01;;;;;;;13.95;10.15;;;;;;;;;;5093993;28;20092;-69
2022/07/21 00:16:27;;;;;;;21.02;11.13;;;;;;;;;;5093428;28;20043;-68
2022/07/21 00:18:54;;;;;;;14.70;11.27;;;;;;;;;;5089130;28;20118;-68
2022/07/21 00:21:20;;;;;;;16.77;11.93;;;;;;;;;;5096979;28;20078;-69
2022/07/21 00:23:46;;;;;;;18.15;11.27;;;;;;;;;;5090623;28;20058;-69
2022/07/21 00:26:12;;;;;;;17.15;13.10;;;;;;;;;;5087726;28;20086;-68
2022/07/21 00:28:38;;;;;;;18.13;13.32;;;;;;;;;;5093779;28;20043;-68
2022/07/21 00:31:05;;;;;;;17.40;12.00;;;;;;;;;;5098252;28;20035;-68
2022/07/21 00:33:31;;;;;;;16.67;12.43;;;;;;;;;;5094565;28;20032;-68
2022/07/21 00:35:57;;;;;;;16.42;12.98;;;;;;;;;;5090145;28;20046;-68
2022/07/21 00:38:23;;;;;;;19.17;14.02;;;;;;;;;;5090055;28;20084;-68
2022/07/21 00:40:49;;;;;;;23.83;15.95;;;;;;;;;;5094589;28;20036;-69
2022/07/21 00:43:15;;;;;;;21.52;14.45;;;;;;;;;;5094794;28;20040;-68
2022/07/21 00:45:41;;;;;;;21.60;15.77;;;;;;;;;;5093640;28;20512;-68
2022/07/21 00:48:08;;;;;;;25.75;16.73;;;;;;;;;;5094291;28;20044;-68
2022/07/21 00:50:34;;;;;;;19.02;15.45;;;;;;;;;;5090383;28;20103;-68
2022/07/21 00:53:00;;;;;;;21.90;16.60;;;;;;;;;;5106282;27;20476;-68
2022/07/21 00:55:26;;;;;;;23.00;16.75;;;;;;;;;;5093994;28;20036;-68
2022/07/21 00:57:53;;;;;;;24.92;16.85;;;;;;;;;;5086032;28;20032;-68
2022/07/21 01:00:21;;;;;;;24.95;17.27;;;;;;;;;;5096100;28;20088;-68
2022/07/21 01:02:47;;;;;;;21.35;16.48;;;;;;;;;;5090929;27;20388;-68
2022/07/21 01:05:18;;;;;;;24.23;17.00;;;;;;;;;;5080625;28;20139;-68
2022/07/21 01:07:46;;;;;;;29.10;19.45;;;;;;;;;;5092600;28;20043;-68
2022/07/21 01:10:13;;;;;;;23.48;16.60;;;;;;;;;;5095332;28;20047;-68
2022/07/21 01:12:39;;;;;;;26.60;17.88;;;;;;;;;;5089090;28;20028;-68
2022/07/21 01:15:08;;;;;;;22.77;16.27;;;;;;;;;;5090450;28;20115;-68
2022/07/21 01:17:34;;;;;;;22.30;16.95;;;;;;;;;;5091062;28;20036;-68
2022/07/21 01:20:05;;;;;;;26.63;18.98;;;;;;;;;;5087009;28;20151;-68
2022/07/21 01:22:32;;;;;;;23.52;18.80;;;;;;;;;;5070987;28;20094;-69
2022/07/21 01:24:58;;;;;;;24.58;17.10;;;;;;;;;;5092817;28;20082;-68
2022/07/21 01:27:26;;;;;;;27.60;19.17;;;;;;;;;;5092328;28;20374;-68
2022/07/21 01:29:52;;;;;;;27.63;19.27;;;;;;;;;;5095161;28;20072;-70
2022/07/21 01:32:18;;;;;;;25.98;19.52;;;;;;;;;;5101179;28;20051;-68
2022/07/21 01:34:44;;;;;;;23.08;18.48;;;;;;;;;;5097136;28;20036;-68
2022/07/21 01:37:10;;;;;;;22.38;18.23;;;;;;;;;;5094636;28;20052;-68
2022/07/21 01:42:21;;;;;;;27.85;20.38;;;;;;;;;;5095933;28;20482;-68
2022/07/21 01:44:49;;;;;;;23.48;18.60;;;;;;;;;;5093480;28;20498;-68
2022/07/21 01:47:17;;;;;;;25.15;18.73;;;;;;;;;;5097730;28;20044;-68
2022/07/21 01:49:43;;;;;;;26.80;20.63;;;;;;;;;;5097800;28;20039;-68
2022/07/21 01:52:09;;;;;;;29.45;20.45;;;;;;;;;;5097331;28;20508;-68
2022/07/21 01:54:36;;;;;;;29.63;19.77;;;;;;;;;;5079951;28;20040;-68
2022/07/21 01:57:02;;;;;;;28.10;19.65;;;;;;;;;;5096715;28;20047;-68
2022/07/21 01:59:28;;;;;;;29.02;20.90;;;;;;;;;;5099002;28;20035;-68
2022/07/21 02:01:55;;;;;;;22.88;19.92;;;;;;;;;;5094433;28;20196;-68
2022/07/21 02:04:21;;;;;;;26.35;20.20;;;;;;;;;;5090983;28;20293;-68
2022/07/21 02:06:48;;;;;;;27.10;20.83;;;;;;;;;;5094524;28;20222;-68
2022/07/21 02:09:14;;;;;;;32.50;22.05;;;;;;;;;;5092184;28;20135;-67
2022/07/21 02:11:40;;;;;;;26.90;20.30;;;;;;;;;;5081742;28;20036;-68
2022/07/21 02:14:06;;;;;;;26.98;20.27;;;;;;;;;;5093601;28;20032;-68
2022/07/21 02:16:32;;;;;;;25.60;21.33;;;;;;;;;;5091978;28;20036;-68
2022/07/21 02:18:59;;;;;;;31.67;22.90;;;;;;;;;;5092125;28;20504;-68
2022/07/21 02:21:25;;;;;;;32.20;24.08;;;;;;;;;;5091446;28;20036;-67
2022/07/21 02:23:51;;;;;;;33.10;24.00;;;;;;;;;;5092012;28;20044;-68
2022/07/21 02:26:18;;;;;;;32.70;23.90;;;;;;;;;;5092339;28;20060;-68
2022/07/21 02:28:44;;;;;;;31.25;25.05;;;;;;;;;;5089636;28;20068;-67
2022/07/21 02:31:10;;;;;;;33.50;24.67;;;;;;;;;;5093930;28;20032;-68
2022/07/21 02:33:36;;;;;;;33.10;22.85;;;;;;;;;;5074855;28;20558;-68
2022/07/21 02:36:03;;;;;;;36.47;23.88;;;;;;;;;;5087371;28;20040;-68
2022/07/21 02:38:30;;;;;;;30.60;23.55;;;;;;;;;;5085675;28;20439;-68
2022/07/21 02:40:56;;;;;;;31.00;22.40;;;;;;;;;;5084288;28;20579;-68
2022/07/21 02:43:22;;;;;;;27.83;20.77;;;;;;;;;;5094768;28;20046;-68
2022/07/21 02:45:48;;;;;;;29.75;22.35;;;;;;;;;;5093047;28;20131;-68
2022/07/21 02:48:15;;;;;;;31.70;21.30;;;;;;;;;;5088477;28;20125;-68
2022/07/21 02:50:42;;;;;;;33.95;23.08;;;;;;;;;;5096123;28;20028;-68
2022/07/21 02:53:19;;;;;;;29.67;22.83;;;;;;;;;;5090285;28;20059;-67
2022/07/21 02:55:49;;;;;;;30.15;22.33;;;;;;;;;;5088015;28;20036;-67
2022/07/21 02:58:23;;;;;;;30.75;23.48;;;;;;;;;;5093717;28;20043;-68
2022/07/21 03:00:54;;;;;;;30.83;22.70;;;;;;;;;;5092700;28;20520;-68
2022/07/21 03:03:21;;;;;;;31.15;22.42;;;;;;;;;;5092742;28;20043;-68
2022/07/21 03:05:47;;;;;;;27.42;21.73;;;;;;;;;;5089370;28;20346;-67
2022/07/21 03:08:14;;;;;;;33.75;24.40;;;;;;;;;;5098703;28;20118;-67
2022/07/21 03:10:40;;;;;;;31.33;23.95;;;;;;;;;;5094217;28;20039;-67
2022/07/21 03:13:07;;;;;;;28.92;22.77;;;;;;;;;;5086355;28;20040;-68
2022/07/21 03:15:33;;;;;;;30.50;23.42;;;;;;;;;;5094707;28;20043;-68
2022/07/21 03:17:59;;;;;;;32.38;22.13;;;;;;;;;;5095497;28;20047;-68
2022/07/21 03:20:30;;;;;;;30.52;22.70;;;;;;;;;;5069315;28;20047;-67
2022/07/21 03:22:56;;;;;;;32.10;22.45;;;;;;;;;;5094869;28;20059;-67
2022/07/21 03:25:23;;;;;;;28.75;22.75;;;;;;;;;;5088853;28;20051;-68
2022/07/21 03:27:50;;;;;;;26.92;20.25;;;;;;;;;;5095853;28;20105;-68
2022/07/21 03:30:16;;;;;;;25.23;21.42;;;;;;;;;;5100104;28;20099;-68
2022/07/21 03:32:42;;;;;;;30.38;23.63;;;;;;;;;;5094986;28;20043;-68
2022/07/21 03:35:10;;;;;;;29.08;21.85;;;;;;;;;;5096078;27;20383;-67
2022/07/21 03:37:48;;;;;;;31.73;21.38;;;;;;;;;;5089102;28;20457;-67
2022/07/21 03:40:15;;;;;;;29.60;21.58;;;;;;;;;;5093487;28;20059;-67
2022/07/21 03:42:42;;;;;;;31.67;22.02;;;;;;;;;;5094349;28;20032;-67
2022/07/21 03:45:09;;;;;;;29.08;21.27;;;;;;;;;;5094272;28;20036;-68
2022/07/21 03:47:35;;;;;;;26.17;19.75;;;;;;;;;;5112453;27;20055;-67
2022/07/21 03:50:01;;;;;;;27.27;20.58;;;;;;;;;;5085721;28;20036;-67
2022/07/21 03:52:28;;;;;;;26.23;22.17;;;;;;;;;;5091042;28;20086;-67
2022/07/21 03:55:07;;;;;;;33.05;20.40;;;;;;;;;;5094719;28;20024;-67
2022/07/21 03:57:40;;;;;;;25.88;20.25;;;;;;;;;;5098745;28;20557;-67
2022/07/21 04:00:08;;;;;;;26.35;20.55;;;;;;;;;;5091870;28;20043;-67
2022/07/21 04:02:34;;;;;;;28.60;21.15;;;;;;;;;;5090884;28;20071;-67
2022/07/21 04:05:00;;;;;;;24.80;18.63;;;;;;;;;;5092778;28;20463;-67
2022/07/21 04:07:26;;;;;;;28.58;21.02;;;;;;;;;;5094752;28;20067;-67
2022/07/21 04:09:52;;;;;;;22.48;18.50;;;;;;;;;;5095313;28;20040;-67
2022/07/21 04:12:18;;;;;;;22.67;19.23;;;;;;;;;;5092294;28;20123;-67
2022/07/21 04:14:46;;;;;;;27.40;19.42;;;;;;;;;;5091921;28;20079;-67
2022/07/21 04:17:14;;;;;;;28.90;20.70;;;;;;;;;;5090132;28;20119;-67
2022/07/21 04:19:41;;;;;;;27.65;21.20;;;;;;;;;;5094039;28;20123;-68
2022/07/21 04:22:07;;;;;;;24.08;20.20;;;;;;;;;;5088402;28;20071;-67
2022/07/21 04:24:33;;;;;;;25.73;20.20;;;;;;;;;;5089377;28;20074;-67
2022/07/21 04:26:59;;;;;;;27.38;21.52;;;;;;;;;;5090651;28;20052;-67
2022/07/21 04:29:25;;;;;;;24.73;18.45;;;;;;;;;;5106339;27;20497;-67
2022/07/21 04:31:51;;;;;;;26.83;19.25;;;;;;;;;;5095168;28;20500;-67
2022/07/21 04:34:17;;;;;;;26.42;20.20;;;;;;;;;;5091801;28;20432;-67
2022/07/21 04:36:44;;;;;;;26.38;19.13;;;;;;;;;;5096032;28;20273;-67
2022/07/21 04:39:10;;;;;;;26.83;21.38;;;;;;;;;;5092901;28;20056;-67
2022/07/21 04:41:36;;;;;;;29.05;21.67;;;;;;;;;;5089395;28;20036;-68
2022/07/21 04:44:02;;;;;;;27.20;21.05;;;;;;;;;;5086364;28;20051;-67
2022/07/21 04:46:28;;;;;;;30.13;21.92;;;;;;;;;;5088150;28;20082;-68
2022/07/21 04:48:54;;;;;;;26.00;19.40;;;;;;;;;;5088713;28;20906;-67
2022/07/21 04:51:20;;;;;;;25.15;19.08;;;;;;;;;;5085010;28;20044;-67
2022/07/21 04:53:46;;;;;;;23.70;19.30;;;;;;;;;;5086486;28;20420;-68
2022/07/21 04:56:12;;;;;;;18.52;16.55;;;;;;;;;;5085743;28;20123;-68
2022/07/21 04:58:39;;;;;;;27.42;19.20;;;;;;;;;;5079752;28;20036;-68
2022/07/21 05:01:05;;;;;;;21.65;17.65;;;;;;;;;;5085613;28;20474;-67
2022/07/21 05:03:31;;;;;;;19.05;15.82;;;;;;;;;;5086572;28;20067;-67
2022/07/21 05:05:57;;;;;;;17.77;14.90;;;;;;;;;;5087056;28;20036;-67
2022/07/21 05:08:26;;;;;;;17.30;15.48;;;;;;;;;;5086414;28;20044;-67
2022/07/21 05:10:52;;;;;;;20.05;15.63;;;;;;;;;;5084207;28;20046;-68
2022/07/21 05:13:18;;;;;;;17.10;15.15;;;;;;;;;;5084713;28;20044;-67
2022/07/21 05:15:45;;;;;;;19.83;16.50;;;;;;;;;;5085975;28;20496;-67
2022/07/21 05:18:11;;;;;;;20.15;17.30;;;;;;;;;;5092549;28;20147;-67
2022/07/21 05:20:37;;;;;;;20.38;17.40;;;;;;;;;;5083597;28;20435;-67
2022/07/21 05:23:03;;;;;;;22.45;18.45;;;;;;;;;;5096937;28;20470;-67
2022/07/21 05:25:31;;;;;;;24.23;18.67;;;;;;;;;;5085415;28;20229;-67
2022/07/21 05:27:58;;;;;;;23.35;17.52;;;;;;;;;;5086344;28;20119;-68
2022/07/21 05:30:24;;;;;;;20.40;18.13;;;;;;;;;;5087121;28;20131;-67
2022/07/21 05:32:50;;;;;;;25.00;19.02;;;;;;;;;;5088246;28;20071;-67
2022/07/21 05:35:16;;;;;;;20.92;17.33;;;;;;;;;;5066450;28;20457;-67
2022/07/21 05:37:43;;;;;;;22.55;17.63;;;;;;;;;;5083977;28;20497;-68
2022/07/21 05:40:09;;;;;;;24.05;18.42;;;;;;;;;;5081882;28;20497;-67
2022/07/21 05:42:36;;;;;;;22.92;18.00;;;;;;;;;;5086483;28;20054;-68
2022/07/21 05:45:03;;;;;;;20.83;17.27;;;;;;;;;;5084329;28;20603;-68
2022/07/21 05:47:31;;;;;;;19.98;17.55;;;;;;;;;;5088151;28;20075;-68
2022/07/21 05:49:57;;;;;;;19.73;16.65;;;;;;;;;;5083666;28;20048;-67
2022/07/21 05:52:23;;;;;;;20.50;16.15;;;;;;;;;;5100183;28;20486;-67
2022/07/21 05:54:49;;;;;;;20.20;15.75;;;;;;;;;;5091685;28;20055;-68
2022/07/21 05:57:16;;;;;;;20.70;15.23;;;;;;;;;;5084939;28;20098;-68
2022/07/21 05:59:42;;;;;;;20.23;16.60;;;;;;;;;;5087882;28;20058;-67
2022/07/21 06:02:08;;;;;;;21.50;16.50;;;;;;;;;;5085475;28;20485;-68
2022/07/21 06:04:34;;;;;;;18.33;15.30;;;;;;;;;;5086078;28;20071;-68
2022/07/21 06:07:00;;;;;;;20.45;16.35;;;;;;;;;;5082106;28;20040;-68
2022/07/21 06:09:27;;;;;;;21.10;16.30;;;;;;;;;;5086050;28;20628;-67
2022/07/21 06:11:53;;;;;;;20.88;17.73;;;;;;;;;;5081990;28;20367;-67
2022/07/21 06:14:19;;;;;;;20.65;18.20;;;;;;;;;;5088065;28;20126;-67
2022/07/21 06:16:45;;;;;;;21.73;18.23;;;;;;;;;;5088300;28;20570;-67
2022/07/21 06:19:12;;;;;;;22.52;18.13;;;;;;;;;;5091672;28;20515;-68
2022/07/21 06:21:38;;;;;;;23.83;19.02;;;;;;;;;;5092919;28;20052;-68
2022/07/21 06:24:04;;;;;;;24.25;18.77;;;;;;;;;;5090351;28;20464;-67
2022/07/21 06:26:30;;;;;;;30.00;19.13;;;;;;;;;;5084257;28;20040;-68
2022/07/21 06:28:56;;;;;;;23.63;19.65;;;;;;;;;;5090785;28;20039;-68
2022/07/21 06:31:23;;;;;;;25.20;18.77;;;;;;;;;;5088260;28;20043;-68
2022/07/21 06:33:49;;;;;;;25.73;19.15;;;;;;;;;;5092035;28;20070;-68
2022/07/21 06:36:15;;;;;;;23.20;17.85;;;;;;;;;;5087373;28;20122;-68
2022/07/21 06:38:41;;;;;;;23.45;16.98;;;;;;;;;;5093662;28;20044;-68
2022/07/21 06:41:07;;;;;;;21.13;17.60;;;;;;;;;;5089246;28;20045;-68
2022/07/21 06:43:35;;;;;;;20.35;16.95;;;;;;;;;;5081679;28;20044;-68
2022/07/21 06:46:01;;;;;;;20.70;15.13;;;;;;;;;;5075340;28;20573;-68
2022/07/21 06:48:27;;;;;;;19.52;14.73;;;;;;;;;;5094613;28;20497;-68
2022/07/21 06:50:54;;;;;;;18.42;14.80;;;;;;;;;;5092179;28;20036;-68
2022/07/21 06:53:20;;;;;;;18.38;14.40;;;;;;;;;;5088525;28;20063;-68
2022/07/21 06:55:46;;;;;;;17.58;13.95;;;;;;;;;;5087838;28;20477;-68
2022/07/21 06:58:13;;;;;;;16.70;13.63;;;;;;;;;;5088064;28;20083;-68
2022/07/21 07:00:40;;;;;;;16.95;12.85;;;;;;;;;;5087980;28;20079;-68
2022/07/21 07:03:06;;;;;;;16.85;13.88;;;;;;;;;;5090104;28;20044;-68
2022/07/21 07:05:32;;;;;;;17.90;13.52;;;;;;;;;;5086011;28;20083;-68
2022/07/21 07:07:59;;;;;;;18.73;14.48;;;;;;;;;;5083403;28;20553;-68
2022/07/21 07:10:25;;;;;;;16.92;13.43;;;;;;;;;;5089616;28;20098;-68
2022/07/21 07:12:51;;;;;;;16.98;13.88;;;;;;;;;;5092686;27;20093;-68
2022/07/21 07:15:18;;;;;;;17.60;12.77;;;;;;;;;;5086507;28;20065;-68
2022/07/21 07:17:44;;;;;;;17.17;13.98;;;;;;;;;;5091761;28;20119;-68
2022/07/21 07:20:10;;;;;;;23.67;17.02;;;;;;;;;;5071462;28;20382;-68
2022/07/21 07:22:38;;;;;;;22.40;18.33;;;;;;;;;;5080709;28;20052;-68
2022/07/21 07:25:05;;;;;;;21.63;17.50;;;;;;;;;;5084540;28;20121;-68
2022/07/21 07:27:31;;;;;;;23.13;19.15;;;;;;;;;;5085693;28;20083;-68
2022/07/21 07:29:57;;;;;;;24.70;18.92;;;;;;;;;;5089639;28;20070;-68
2022/07/21 07:32:23;;;;;;;21.75;19.35;;;;;;;;;;5090024;27;20048;-68
2022/07/21 07:34:49;;;;;;;22.40;19.48;;;;;;;;;;5079600;28;20092;-68
2022/07/21 07:37:16;;;;;;;24.13;18.63;;;;;;;;;;5086703;28;20036;-69
2022/07/21 07:39:42;;;;;;;23.38;17.75;;;;;;;;;;5087058;28;20046;-68
2022/07/21 07:42:08;;;;;;;25.55;18.83;;;;;;;;;;5087223;28;20231;-68
2022/07/21 07:44:34;;;;;;;26.95;19.75;;;;;;;;;;5085310;28;20044;-68
2022/07/21 07:47:03;;;;;;;20.70;17.20;;;;;;;;;;5085696;28;20044;-69
2022/07/21 07:49:31;;;;;;;24.42;18.45;;;;;;;;;;5086217;28;20481;-68
2022/07/21 07:51:58;;;;;;;25.88;20.08;;;;;;;;;;5088526;28;20051;-68
2022/07/21 07:54:24;;;;;;;22.00;18.35;;;;;;;;;;5087472;28;20044;-68
2022/07/21 07:56:51;;;;;;;27.70;19.42;;;;;;;;;;5085711;28;20043;-68
2022/07/21 07:59:18;;;;;;;25.60;20.20;;;;;;;;;;5088147;28;20067;-68
2022/07/21 08:01:44;;;;;;;23.23;18.27;;;;;;;;;;5088347;28;20036;-68
2022/07/21 08:04:10;;;;;;;22.35;19.25;;;;;;;;;;5086149;28;20473;-68
2022/07/21 08:06:37;;;;;;;25.70;18.73;;;;;;;;;;5067230;28;20367;-68
2022/07/21 08:09:03;;;;;;;24.38;19.17;;;;;;;;;;5088400;28;20052;-68
2022/07/21 08:11:30;;;;;;;22.27;18.45;;;;;;;;;;5085809;28;20036;-68
2022/07/21 08:13:56;;;;;;;23.25;18.83;;;;;;;;;;5085501;28;20040;-68
2022/07/21 08:16:22;;;;;;;26.23;19.67;;;;;;;;;;5083578;28;20402;-68
2022/07/21 08:18:49;;;;;;;26.13;18.92;;;;;;;;;;5086779;28;20058;-68
2022/07/21 08:21:15;;;;;;;24.05;19.92;;;;;;;;;;5084902;28;20062;-68
2022/07/21 08:23:41;;;;;;;22.88;18.35;;;;;;;;;;5087624;28;20086;-68
2022/07/21 08:26:07;;;;;;;21.90;17.23;;;;;;;;;;5083362;28;20374;-68
2022/07/21 08:28:33;;;;;;;24.58;20.67;;;;;;;;;;5085116;28;20493;-68
2022/07/21 08:30:59;;;;;;;27.42;20.17;;;;;;;;;;5090741;28;20040;-68
2022/07/21 08:33:25;;;;;;;23.23;20.67;;;;;;;;;;5086465;28;20157;-68
2022/07/21 08:35:53;;;;;;;29.40;21.70;;;;;;;;;;5089115;28;20036;-68
2022/07/21 08:38:20;;;;;;;23.35;20.25;;;;;;;;;;5083234;28;20082;-68
2022/07/21 08:40:46;;;;;;;27.85;22.30;;;;;;;;;;5066571;28;20531;-68
2022/07/21 08:43:14;;;;;;;29.58;22.48;;;;;;;;;;5083732;28;20367;-68
2022/07/21 08:45:41;;;;;;;27.65;20.77;;;;;;;;;;5084306;28;20044;-67
2022/07/21 08:48:07;;;;;;;27.67;21.65;;;;;;;;;;5085110;28;20047;-68
2022/07/21 08:50:35;;;;;;;28.80;23.90;;;;;;;;;;5082432;28;20100;-68
2022/07/21 08:53:01;;;;;;;29.92;24.52;;;;;;;;;;5087987;28;20043;-68
2022/07/21 08:55:32;;;;;;;31.08;24.08;;;;;;;;;;5084231;28;20109;-68
2022/07/21 08:57:58;;;;;;;29.58;24.75;;;;;;;;;;5085765;28;20044;-68
2022/07/21 09:00:25;;;;;;;33.53;26.17;;;;;;;;;;5091178;28;20047;-68
2022/07/21 09:03:08;;;;;;;32.03;24.90;;;;;;;;;;5085605;28;20036;-67
2022/07/21 09:05:34;;;;;;;31.17;24.05;;;;;;;;;;5085320;28;20047;-68
2022/07/21 09:08:01;;;;;;;31.02;25.15;;;;;;;;;;5086391;28;20048;-68
2022/07/21 09:10:29;;;;;;;30.33;25.20;;;;;;;;;;5105035;27;20381;-69
2022/07/21 09:12:56;;;;;;;32.63;25.90;;;;;;;;;;5087998;28;20119;-68
2022/07/21 09:15:24;;;;;;;30.02;24.67;;;;;;;;;;5089731;28;20036;-68
2022/07/21 09:18:08;;;;;;;26.75;22.25;;;;;;;;;;5086276;28;20036;-68
2022/07/21 09:20:35;;;;;;;22.63;17.85;;;;;;;;;;5086656;28;20063;-68
2022/07/21 09:23:09;;;;;;;18.67;14.43;;;;;;;;;;5084861;28;20043;-69
2022/07/21 09:25:36;;;;;;;17.27;14.02;;;;;;;;;;5063088;28;20046;-68
2022/07/21 09:28:32;;;;;;;16.63;14.07;;;;;;;;;;5080460;28;20048;-68
2022/07/21 09:31:08;;;;;;;20.65;16.80;;;;;;;;;;5080801;28;20406;-68
2022/07/21 09:33:39;;;;;;;17.55;15.20;;;;;;;;;;5095557;28;20598;-68
2022/07/21 09:36:31;;;;;;;19.05;15.77;;;;;;;;;;5087764;28;20040;-68
2022/07/21 09:38:58;;;;;;;18.95;14.95;;;;;;;;;;5086296;28;20048;-68
2022/07/21 09:41:25;;;;;;;21.33;17.35;;;;;;;;;;5089631;28;20046;-68
2022/07/21 09:43:52;;;;;;;19.50;16.02;;;;;;;;;;5109342;28;20550;-68
2022/07/21 09:46:23;;;;;;;18.98;16.98;;;;;;;;;;5091775;28;20058;-69
2022/07/21 09:48:52;;;;;;;19.40;15.80;;;;;;;;;;5090569;28;20101;-69
2022/07/21 09:51:22;;;;;;;18.60;14.77;;;;;;;;;;5092096;28;20076;-69
2022/07/21 09:53:54;;;;;;;14.05;12.23;;;;;;;;;;5090030;28;20055;-69
2022/07/21 09:56:21;;;;;;;13.65;10.65;;;;;;;;;;5103189;27;20042;-69
2022/07/21 09:58:48;;;;;;;14.48;11.65;;;;;;;;;;5099649;27;20032;-69
2022/07/21 10:01:14;;;;;;;14.70;10.85;;;;;;;;;;5091338;28;20048;-69
2022/07/21 10:03:43;;;;;;;13.57;11.88;;;;;;;;;;5093861;28;20036;-69
2022/07/21 10:06:09;;;;;;;16.23;13.77;;;;;;;;;;5092354;28;20044;-69
2022/07/21 10:08:37;;;;;;;16.30;13.48;;;;;;;;;;5089815;28;20059;-69
2022/07/21 10:11:04;;;;;;;14.07;12.45;;;;;;;;;;5083346;28;20473;-69
2022/07/21 10:13:30;;;;;;;15.10;13.27;;;;;;;;;;5094271;28;20078;-69
2022/07/21 10:15:57;;;;;;;14.75;12.60;;;;;;;;;;5093633;28;20186;-69
2022/07/21 10:18:25;;;;;;;14.70;12.63;;;;;;;;;;5091870;28;20032;-69
2022/07/21 10:20:55;;;;;;;17.40;13.77;;;;;;;;;;5092111;28;20048;-69
2022/07/21 10:23:42;;;;;;;19.13;14.15;;;;;;;;;;5090844;28;20076;-69
2022/07/21 10:26:09;;;;;;;19.35;14.60;;;;;;;;;;5090645;28;20043;-69
2022/07/21 10:28:35;;;;;;;18.63;15.07;;;;;;;;;;5096554;28;20573;-69
2022/07/21 10:31:13;;;;;;;17.75;15.00;;;;;;;;;;5092994;28;20087;-69
2022/07/21 10:33:45;;;;;;;18.00;15.32;;;;;;;;;;5100235;27;20199;-69
2022/07/21 10:36:33;;;;;;;20.67;15.48;;;;;;;;;;5081646;28;20044;-69
2022/07/21 10:39:08;;;;;;;18.02;13.55;;;;;;;;;;5088275;28;20051;-69
2022/07/21 10:41:39;;;;;;;18.92;15.88;;;;;;;;;;5087544;28;20032;-69
2022/07/21 10:44:25;;;;;;;16.92;13.80;;;;;;;;;;5092249;28;20513;-69
2022/07/21 10:47:05;;;;;;;19.67;16.08;;;;;;;;;;5088428;28;20055;-71
2022/07/21 10:49:43;;;;;;;16.77;14.65;;;;;;;;;;5089899;28;20044;-68
2022/07/21 10:52:28;;;;;;;18.63;14.32;;;;;;;;;;5101031;27;20050;-69
2022/07/21 10:55:13;;;;;;;16.65;14.23;;;;;;;;;;5085518;28;20046;-69
2022/07/21 10:57:39;;;;;;;15.90;13.73;;;;;;;;;;5067829;28;20044;-69
2022/07/21 11:00:22;;;;;;;14.60;12.88;;;;;;;;;;5090575;28;20109;-68
2022/07/21 11:02:53;;;;;;;16.20;13.30;;;;;;;;;;5090078;28;20181;-68
2022/07/21 11:05:20;;;;;;;12.57;10.60;;;;;;;;;;5081086;28;20545;-69
2022/07/21 11:08:05;;;;;;;12.40;9.55;;;;;;;;;;5089733;28;20498;-68
2022/07/21 11:10:32;;;;;;;13.35;9.70;;;;;;;;;;5070218;28;20430;-68
2022/07/21 11:12:58;;;;;;;12.88;9.88;;;;;;;;;;5092525;28;20071;-69
2022/07/21 11:15:44;;;;;;;11.65;9.80;;;;;;;;;;5095590;28;20457;-69
2022/07/21 11:18:11;;;;;;;11.68;9.63;;;;;;;;;;5086208;28;20043;-68
2022/07/21 11:20:37;;;;;;;10.45;8.93;;;;;;;;;;5088758;28;20076;-68
2022/07/21 11:23:03;;;;;;;10.30;8.52;;;;;;;;;;5087590;28;20077;-68
2022/07/21 11:25:30;;;;;;;19.67;11.35;;;;;;;;;;5089665;28;20044;-68
2022/07/21 11:27:56;;;;;;;8.73;7.30;;;;;;;;;;5083909;28;20187;-68
2022/07/21 11:30:23;;;;;;;8.23;6.65;;;;;;;;;;5104539;27;20040;-68
2022/07/21 11:32:49;;;;;;;6.15;5.10;;;;;;;;;;5096067;28;20127;-69
2022/07/21 11:35:15;;;;;;;5.85;5.20;;;;;;;;;;5089307;28;20036;-68
2022/07/21 11:37:45;;;;;;;7.28;4.18;;;;;;;;;;5090273;28;20513;-68
2022/07/21 11:40:19;;;;;;;4.28;3.08;;;;;;;;;;5095480;28;20096;-69
2022/07/21 11:42:46;;;;;;;5.22;3.60;;;;;;;;;;5087902;28;20062;-68
2022/07/21 11:45:13;;;;;;;4.10;2.65;;;;;;;;;;5105100;27;20355;-69
2022/07/21 11:47:39;;;;;;;4.57;3.20;;;;;;;;;;5090006;28;20131;-68
2022/07/21 11:50:16;;;;;;;3.88;2.70;;;;;;;;;;5070668;28;20466;-68
2022/07/21 11:52:42;;;;;;;5.78;3.53;;;;;;;;;;5088702;28;20318;-68
2022/07/21 11:55:12;;;;;;;3.90;3.17;;;;;;;;;;5089495;28;20057;-68
2022/07/21 11:57:41;;;;;;;4.47;3.60;;;;;;;;;;5091382;28;20067;-68
2022/07/21 12:00:08;;;;;;;4.05;3.35;;;;;;;;;;5082840;28;20040;-68
2022/07/21 12:02:35;;;;;;;5.13;3.90;;;;;;;;;;5084696;28;20044;-68
2022/07/21 12:05:03;;;;;;;3.80;3.03;;;;;;;;;;5089893;28;20138;-69
2022/07/21 12:07:30;;;;;;;3.63;3.20;;;;;;;;;;5085206;28;20041;-69
2022/07/21 12:09:58;;;;;;;3.80;2.85;;;;;;;;;;5093002;28;20027;-69
2022/07/21 12:12:29;;;;;;;4.40;3.55;;;;;;;;;;5088331;28;20565;-69
2022/07/21 12:14:56;;;;;;;12.15;3.83;;;;;;;;;;5087204;28;20039;-69
2022/07/21 12:17:33;;;;;;;4.45;3.53;;;;;;;;;;5090097;28;20040;-69
2022/07/21 12:20:00;;;;;;;4.43;3.47;;;;;;;;;;5089075;28;20040;-69
2022/07/21 12:22:46;;;;;;;4.70;3.65;;;;;;;;;;5092206;28;20071;-69
2022/07/21 12:25:13;;;;;;;6.15;4.35;;;;;;;;;;5100030;27;20043;-69
2022/07/21 12:27:40;;;;;;;5.78;4.85;;;;;;;;;;5089663;28;20048;-69
2022/07/21 12:30:09;;;;;;;5.35;4.85;;;;;;;;;;5105088;27;20052;-69
2022/07/21 12:32:39;;;;;;;6.68;5.28;;;;;;;;;;5093269;27;20044;-69
2022/07/21 12:35:06;;;;;;;7.32;5.78;;;;;;;;;;5095734;28;20482;-70
2022/07/21 12:37:51;;;;;;;6.50;5.40;;;;;;;;;;5088687;28;20151;-70
2022/07/21 12:40:21;;;;;;;6.22;5.57;;;;;;;;;;5092059;28;20531;-69
2022/07/21 12:42:48;;;;;;;8.18;6.40;;;;;;;;;;5088253;28;20043;-70
2022/07/21 12:45:14;;;;;;;9.15;5.85;;;;;;;;;;5084359;28;20503;-69
2022/07/21 12:47:40;;;;;;;7.65;5.65;;;;;;;;;;5081392;28;20056;-69
2022/07/21 12:50:08;;;;;;;6.68;5.45;;;;;;;;;;5076169;28;20052;-69
2022/07/21 12:52:34;;;;;;;7.63;5.53;;;;;;;;;;5100387;27;20035;-69
2022/07/21 12:55:01;;;;;;;8.60;5.97;;;;;;;;;;5082232;28;20040;-69
2022/07/21 12:57:28;;;;;;;6.85;5.53;;;;;;;;;;5086050;28;20039;-69
2022/07/21 12:59:54;;;;;;;6.30;5.43;;;;;;;;;;5082415;28;20055;-69
2022/07/21 13:02:21;;;;;;;7.68;4.95;;;;;;;;;;5088690;28;20043;-68
2022/07/21 13:04:47;;;;;;;6.70;5.82;;;;;;;;;;5082875;28;20051;-69
2022/07/21 13:07:13;;;;;;;6.15;5.55;;;;;;;;;;5087377;28;20044;-69
2022/07/21 13:09:39;;;;;;;6.68;5.63;;;;;;;;;;5087498;27;20068;-69
2022/07/21 13:12:06;;;;;;;6.75;5.60;;;;;;;;;;5091349;28;20044;-69
2022/07/21 13:14:32;;;;;;;7.22;5.43;;;;;;;;;;5086399;28;20501;-69
2022/07/21 13:16:58;;;;;;;9.18;5.32;;;;;;;;;;5080078;28;20066;-69
2022/07/21 13:19:24;;;;;;;8.15;6.13;;;;;;;;;;5083833;28;20042;-69
2022/07/21 13:21:51;;;;;;;7.85;6.35;;;;;;;;;;5097844;28;20111;-69
2022/07/21 13:24:17;;;;;;;9.20;7.32;;;;;;;;;;5083320;28;20135;-69
2022/07/21 13:26:43;;;;;;;7.47;6.25;;;;;;;;;;5085403;28;20039;-69
2022/07/21 13:29:10;;;;;;;7.57;6.15;;;;;;;;;;5083817;28;20040;-69
2022/07/21 13:31:36;;;;;;;7.93;6.75;;;;;;;;;;5087513;28;20040;-69
2022/07/21 13:34:07;;;;;;;11.02;6.05;;;;;;;;;;5082991;28;20051;-69
2022/07/21 13:36:38;;;;;;;8.82;5.88;;;;;;;;;;5085230;28;20103;-69
2022/07/21 13:39:05;;;;;;;7.70;6.28;;;;;;;;;;5063652;28;20529;-69
2022/07/21 13:41:32;;;;;;;8.38;5.60;;;;;;;;;;5087839;28;20040;-68
2022/07/21 13:43:58;;;;;;;9.27;7.05;;;;;;;;;;5084839;28;20048;-69
2022/07/21 13:46:25;;;;;;;6.10;4.88;;;;;;;;;;5093870;28;20044;-69
2022/07/21 13:48:52;;;;;;;9.00;6.68;;;;;;;;;;5093496;28;20052;-69
2022/07/21 13:51:18;;;;;;;7.32;5.28;;;;;;;;;;5084706;28;20036;-69
2022/07/21 13:53:45;;;;;;;7.65;5.50;;;;;;;;;;5085688;28;20174;-69
2022/07/21 13:56:12;;;;;;;8.50;5.93;;;;;;;;;;5080119;28;20443;-69
2022/07/21 13:58:39;;;;;;;10.65;6.05;;;;;;;;;;5085469;28;20067;-69
2022/07/21 14:01:07;;;;;;;8.52;5.03;;;;;;;;;;5085162;28;20048;-69
2022/07/21 14:03:34;;;;;;;7.18;4.30;;;;;;;;;;5082367;28;20436;-69
2022/07/21 14:06:00;;;;;;;8.68;5.43;;;;;;;;;;5078088;28;20044;-69
2022/07/21 14:08:26;;;;;;;6.13;4.70;;;;;;;;;;5085053;28;20040;-69
2022/07/21 14:10:53;;;;;;;8.75;6.22;;;;;;;;;;5083527;28;20043;-69
2022/07/21 14:13:19;;;;;;;8.35;6.22;;;;;;;;;;5089579;28;20047;-69
2022/07/21 14:15:46;;;;;;;8.75;6.35;;;;;;;;;;5083600;28;20558;-69
2022/07/21 14:18:12;;;;;;;8.27;6.32;;;;;;;;;;5086863;28;20040;-69
2022/07/21 14:20:38;;;;;;;9.70;7.05;;;;;;;;;;5084646;28;20046;-69
2022/07/21 14:23:04;;;;;;;9.30;6.90;;;;;;;;;;5088692;28;20425;-69
2022/07/21 14:25:31;;;;;;;10.70;7.55;;;;;;;;;;5071218;28;20548;-69
2022/07/21 14:27:57;;;;;;;8.07;6.43;;;;;;;;;;5081910;28;20075;-69
2022/07/21 14:30:25;;;;;;;9.10;6.00;;;;;;;;;;5083840;28;20036;-69